Time;durP1;ratioP1;P1;durP2;ratioP2;P2;SDS_P1;SDS_P2;PMS_P1;PMS_P2;Temp;Humidity;BMP_temperature;BMP_pressure;BME280_temperature;BME280_humidity;BME280_pressure;Samples;Min_cycle;Max_cycle;Signal;HPM_P1;HPM_P2
2022/03/03 00:00:15;;;;;;;35.97;22.30;;;;;;;;;;4997294;28;20425;-85
2022/03/03 00:02:44;;;;;;;42.37;23.27;;;;;;;;;;5033274;28;20456;-85
2022/03/03 00:05:10;;;;;;;38.27;22.07;;;;;;;;;;5033172;28;20504;-86
2022/03/03 00:07:36;;;;;;;43.47;22.60;;;;;;;;;;5033191;28;20453;-85
2022/03/03 00:10:04;;;;;;;37.10;21.80;;;;;;;;;;5033297;28;20405;-85
2022/03/03 00:12:30;;;;;;;42.97;23.97;;;;;;;;;;5033352;28;20430;-82
2022/03/03 00:14:55;;;;;;;41.67;23.90;;;;;;;;;;5032246;28;20427;-81
2022/03/03 00:17:21;;;;;;;37.30;23.43;;;;;;;;;;5030900;28;20474;-81
2022/03/03 00:19:47;;;;;;;40.17;25.03;;;;;;;;;;5032391;28;20417;-84
2022/03/03 00:22:13;;;;;;;47.43;27.37;;;;;;;;;;5032581;28;20439;-81
2022/03/03 00:24:39;;;;;;;50.20;25.80;;;;;;;;;;5032753;28;20421;-81
2022/03/03 00:27:06;;;;;;;49.03;25.57;;;;;;;;;;5033230;28;20409;-81
2022/03/03 00:29:32;;;;;;;49.00;24.20;;;;;;;;;;5015002;28;20756;-81
2022/03/03 00:31:58;;;;;;;40.13;25.20;;;;;;;;;;5032101;28;20414;-82
2022/03/03 00:34:24;;;;;;;45.60;23.47;;;;;;;;;;5032886;28;20420;-82
2022/03/03 00:36:50;;;;;;;41.43;22.53;;;;;;;;;;5031458;28;20408;-81
2022/03/03 00:39:16;;;;;;;40.43;20.43;;;;;;;;;;5032143;28;20571;-82
2022/03/03 00:41:42;;;;;;;43.17;23.20;;;;;;;;;;5015136;28;20452;-81
2022/03/03 00:44:09;;;;;;;44.07;21.27;;;;;;;;;;5032702;28;20508;-81
2022/03/03 00:46:36;;;;;;;35.60;21.07;;;;;;;;;;5032749;28;20433;-81
2022/03/03 00:49:05;;;;;;;44.53;22.40;;;;;;;;;;5032702;28;20421;-82
2022/03/03 00:51:31;;;;;;;30.83;16.87;;;;;;;;;;5032712;28;20439;-82
2022/03/03 00:53:58;;;;;;;32.17;21.13;;;;;;;;;;5014534;28;20435;-81
2022/03/03 00:56:24;;;;;;;30.80;19.17;;;;;;;;;;5032638;28;20492;-82
2022/03/03 00:58:55;;;;;;;48.13;23.17;;;;;;;;;;5032461;28;20550;-81
2022/03/03 01:01:21;;;;;;;35.97;19.93;;;;;;;;;;5032732;28;20410;-81
2022/03/03 01:03:47;;;;;;;41.90;18.73;;;;;;;;;;5032647;28;20475;-81
2022/03/03 01:06:14;;;;;;;35.87;20.27;;;;;;;;;;5032825;28;20504;-82
2022/03/03 01:08:40;;;;;;;40.60;23.30;;;;;;;;;;5032271;28;20424;-80
2022/03/03 01:11:08;;;;;;;41.60;21.83;;;;;;;;;;5032441;28;20418;-80
2022/03/03 01:13:34;;;;;;;50.10;21.57;;;;;;;;;;5032654;28;20543;-80
2022/03/03 01:16:00;;;;;;;41.63;21.13;;;;;;;;;;5032623;28;20420;-81
2022/03/03 01:18:26;;;;;;;44.93;23.97;;;;;;;;;;5032389;28;20563;-83
2022/03/03 01:20:54;;;;;;;41.13;23.23;;;;;;;;;;5014836;28;20467;-84
2022/03/03 01:23:20;;;;;;;41.17;21.43;;;;;;;;;;5032409;28;20467;-83
2022/03/03 01:25:46;;;;;;;52.03;24.07;;;;;;;;;;5032558;28;20458;-85
2022/03/03 01:28:12;;;;;;;44.70;22.47;;;;;;;;;;5032513;28;20436;-85
2022/03/03 01:30:38;;;;;;;48.37;24.70;;;;;;;;;;5015018;28;20924;-84
2022/03/03 01:33:06;;;;;;;39.70;23.73;;;;;;;;;;5032423;28;20449;-85
2022/03/03 01:35:32;;;;;;;39.47;21.43;;;;;;;;;;5032364;28;20406;-83
2022/03/03 01:37:58;;;;;;;39.20;22.40;;;;;;;;;;5031806;28;20456;-83
2022/03/03 01:40:25;;;;;;;36.97;21.03;;;;;;;;;;5032437;28;20617;-84
2022/03/03 01:42:51;;;;;;;36.23;19.10;;;;;;;;;;5032382;28;20478;-85
2022/03/03 01:45:17;;;;;;;45.90;23.77;;;;;;;;;;5032300;28;20768;-84
2022/03/03 01:47:43;;;;;;;41.63;22.30;;;;;;;;;;5032331;28;20417;-84
2022/03/03 01:50:09;;;;;;;45.90;22.20;;;;;;;;;;5035452;28;20405;-84
2022/03/03 01:52:35;;;;;;;38.60;21.83;;;;;;;;;;5017771;28;20433;-83
2022/03/03 01:55:01;;;;;;;41.93;22.10;;;;;;;;;;5036166;28;20409;-84
2022/03/03 01:57:27;;;;;;;43.70;20.73;;;;;;;;;;5018146;28;20469;-83
2022/03/03 01:59:54;;;;;;;36.33;18.30;;;;;;;;;;5035942;28;20423;-83
2022/03/03 02:02:23;;;;;;;41.87;21.93;;;;;;;;;;5035854;28;20415;-83
2022/03/03 02:04:49;;;;;;;34.50;19.47;;;;;;;;;;5035750;28;20425;-83
2022/03/03 02:07:15;;;;;;;40.63;21.10;;;;;;;;;;5035428;28;20409;-83
2022/03/03 02:09:41;;;;;;;33.10;18.53;;;;;;;;;;5035709;28;20428;-84
2022/03/03 02:12:07;;;;;;;49.57;23.23;;;;;;;;;;5035676;28;20409;-82
2022/03/03 02:14:48;;;;;;;37.53;20.53;;;;;;;;;;5035639;28;20410;-84
2022/03/03 02:17:15;;;;;;;40.63;19.20;;;;;;;;;;5035614;28;20926;-83
2022/03/03 02:19:41;;;;;;;36.60;19.17;;;;;;;;;;5035471;28;20853;-83
2022/03/03 02:22:08;;;;;;;44.33;21.40;;;;;;;;;;5035109;28;20409;-83
2022/03/03 02:24:34;;;;;;;41.53;18.80;;;;;;;;;;5017669;28;20433;-85
2022/03/03 02:27:00;;;;;;;40.33;18.83;;;;;;;;;;5035240;28;20495;-84
2022/03/03 02:29:26;;;;;;;43.77;20.27;;;;;;;;;;5035246;28;20417;-83
2022/03/03 02:31:52;;;;;;;35.10;17.90;;;;;;;;;;5035198;28;20406;-84
2022/03/03 02:34:18;;;;;;;34.53;18.53;;;;;;;;;;5035193;28;20478;-84
2022/03/03 02:36:44;;;;;;;29.90;18.67;;;;;;;;;;5035217;28;20409;-84
2022/03/03 02:39:10;;;;;;;40.90;19.67;;;;;;;;;;5034599;28;20484;-82
2022/03/03 02:41:37;;;;;;;36.60;18.53;;;;;;;;;;5035129;28;20506;-83
2022/03/03 02:44:03;;;;;;;36.67;19.27;;;;;;;;;;5035082;28;20413;-83
2022/03/03 02:46:29;;;;;;;38.90;20.30;;;;;;;;;;5035007;28;20409;-83
2022/03/03 02:48:55;;;;;;;33.67;18.40;;;;;;;;;;5017247;28;20417;-83
2022/03/03 02:51:22;;;;;;;39.73;20.33;;;;;;;;;;5035051;28;20412;-83
2022/03/03 02:53:48;;;;;;;30.50;16.50;;;;;;;;;;5034518;28;20424;-83
2022/03/03 02:56:14;;;;;;;33.33;18.80;;;;;;;;;;5034949;28;20408;-83
2022/03/03 02:58:40;;;;;;;27.50;16.00;;;;;;;;;;5034854;28;20559;-81
2022/03/03 03:01:06;;;;;;;29.33;17.93;;;;;;;;;;5016607;28;20412;-83
2022/03/03 03:03:32;;;;;;;33.63;16.97;;;;;;;;;;5034742;28;20471;-83
2022/03/03 03:05:58;;;;;;;45.27;20.00;;;;;;;;;;5034654;28;20405;-82
2022/03/03 03:08:24;;;;;;;33.33;16.20;;;;;;;;;;5034251;28;20424;-82
2022/03/03 03:10:50;;;;;;;30.00;15.87;;;;;;;;;;5034695;28;20502;-83
2022/03/03 03:13:16;;;;;;;30.70;18.40;;;;;;;;;;5034722;28;20440;-82
2022/03/03 03:15:45;;;;;;;35.50;18.00;;;;;;;;;;5034587;28;20405;-82
2022/03/03 03:18:12;;;;;;;33.20;18.17;;;;;;;;;;5034379;28;20502;-82
2022/03/03 03:20:39;;;;;;;38.23;16.93;;;;;;;;;;5034535;28;20436;-83
2022/03/03 03:23:05;;;;;;;33.90;17.40;;;;;;;;;;5033982;28;20898;-82
2022/03/03 03:25:31;;;;;;;48.70;21.70;;;;;;;;;;5034399;28;20413;-82
2022/03/03 03:27:57;;;;;;;34.30;18.00;;;;;;;;;;5016685;28;20413;-84
2022/03/03 03:30:22;;;;;;;30.43;18.13;;;;;;;;;;5034471;28;20792;-82
2022/03/03 03:32:48;;;;;;;30.97;15.90;;;;;;;;;;5034210;28;20413;-82
2022/03/03 03:35:14;;;;;;;37.43;19.90;;;;;;;;;;5034035;28;20413;-85
2022/03/03 03:37:40;;;;;;;35.27;17.07;;;;;;;;;;5033617;28;20460;-83
2022/03/03 03:40:07;;;;;;;32.67;17.53;;;;;;;;;;5034005;28;20926;-84
2022/03/03 03:42:33;;;;;;;34.43;17.33;;;;;;;;;;5034125;28;20813;-83
2022/03/03 03:44:59;;;;;;;43.50;20.40;;;;;;;;;;5016172;28;20430;-83
2022/03/03 03:47:25;;;;;;;38.90;20.03;;;;;;;;;;5033882;28;20965;-82
2022/03/03 03:49:51;;;;;;;30.23;17.60;;;;;;;;;;5033817;28;20416;-83
2022/03/03 03:52:17;;;;;;;30.27;17.83;;;;;;;;;;5033476;28;20406;-83
2022/03/03 03:54:43;;;;;;;30.47;17.60;;;;;;;;;;5033724;28;20412;-83
2022/03/03 03:57:09;;;;;;;38.50;18.10;;;;;;;;;;5015950;28;20928;-81
2022/03/03 03:59:35;;;;;;;32.10;17.40;;;;;;;;;;5015881;28;20484;-84
2022/03/03 04:02:01;;;;;;;29.33;16.77;;;;;;;;;;5033657;28;20806;-81
2022/03/03 04:04:27;;;;;;;35.30;17.83;;;;;;;;;;5033521;28;20416;-82
2022/03/03 04:06:53;;;;;;;38.27;18.70;;;;;;;;;;5033265;28;20413;-82
2022/03/03 04:09:19;;;;;;;33.73;20.17;;;;;;;;;;5033647;28;20413;-83
2022/03/03 04:11:45;;;;;;;34.80;18.50;;;;;;;;;;5032899;28;20402;-82
2022/03/03 04:14:11;;;;;;;38.83;18.20;;;;;;;;;;5033464;28;20416;-81
2022/03/03 04:16:37;;;;;;;33.17;17.60;;;;;;;;;;5033523;28;20425;-81
2022/03/03 04:19:05;;;;;;;30.40;16.57;;;;;;;;;;5015573;28;20476;-82
2022/03/03 04:21:31;;;;;;;25.30;15.27;;;;;;;;;;5033227;28;20406;-82
2022/03/03 04:23:58;;;;;;;31.73;16.67;;;;;;;;;;5032955;28;20894;-83
2022/03/03 04:26:24;;;;;;;33.37;19.40;;;;;;;;;;5033290;28;20408;-82
2022/03/03 04:28:49;;;;;;;34.60;14.63;;;;;;;;;;5033358;28;20503;-83
2022/03/03 04:31:15;;;;;;;32.50;17.20;;;;;;;;;;5033397;28;20401;-85
2022/03/03 04:33:42;;;;;;;38.50;18.47;;;;;;;;;;5033261;28;20489;-82
2022/03/03 04:36:08;;;;;;;40.40;19.60;;;;;;;;;;5032988;28;20463;-83
2022/03/03 04:38:34;;;;;;;35.07;18.20;;;;;;;;;;5032599;28;20480;-85
2022/03/03 04:41:00;;;;;;;40.47;18.37;;;;;;;;;;5015535;28;20418;-82
2022/03/03 04:43:26;;;;;;;42.90;18.57;;;;;;;;;;5033064;28;20903;-83
2022/03/03 04:45:52;;;;;;;31.50;16.90;;;;;;;;;;5015523;28;20421;-83
2022/03/03 04:48:18;;;;;;;39.27;16.07;;;;;;;;;;5032995;28;20772;-87
2022/03/03 04:50:44;;;;;;;38.77;19.20;;;;;;;;;;5033057;28;20421;-87
2022/03/03 04:53:10;;;;;;;30.00;17.93;;;;;;;;;;5015954;28;20975;-87
2022/03/03 04:55:36;;;;;;;32.40;18.40;;;;;;;;;;5033033;28;20786;-82
2022/03/03 04:58:02;;;;;;;41.10;20.03;;;;;;;;;;5032697;28;20460;-82
2022/03/03 05:00:28;;;;;;;39.17;17.30;;;;;;;;;;5032541;28;20421;-82
2022/03/03 05:02:54;;;;;;;28.23;16.67;;;;;;;;;;5014874;28;20416;-87
2022/03/03 05:05:20;;;;;;;29.80;15.63;;;;;;;;;;5043570;28;20414;-82
2022/03/03 05:07:46;;;;;;;27.70;16.27;;;;;;;;;;5054506;28;20386;-86
2022/03/03 05:10:12;;;;;;;29.17;14.57;;;;;;;;;;5044325;28;20941;-82
2022/03/03 05:12:38;;;;;;;25.67;13.30;;;;;;;;;;5047781;28;20421;-82
2022/03/03 05:15:04;;;;;;;26.40;14.30;;;;;;;;;;5049743;28;20429;-82
2022/03/03 05:17:30;;;;;;;31.23;15.80;;;;;;;;;;5038392;28;20459;-88
2022/03/03 05:19:57;;;;;;;28.83;14.30;;;;;;;;;;5032828;28;20940;-83
2022/03/03 05:22:23;;;;;;;28.33;13.50;;;;;;;;;;5015575;28;20421;-89
2022/03/03 05:24:51;;;;;;;26.03;15.13;;;;;;;;;;5037169;28;20417;-90
2022/03/03 05:27:17;;;;;;;36.47;17.57;;;;;;;;;;5038038;28;20420;-91
2022/03/03 05:29:43;;;;;;;28.00;14.10;;;;;;;;;;5037147;28;20559;-82
2022/03/03 05:32:18;;;;;;;28.17;15.10;;;;;;;;;;5019757;28;20439;-89
2022/03/03 05:34:44;;;;;;;34.73;18.10;;;;;;;;;;5037373;28;20416;-83
2022/03/03 05:37:20;;;;;;;29.37;15.03;;;;;;;;;;5037351;28;20412;-87
2022/03/03 05:39:46;;;;;;;32.77;14.77;;;;;;;;;;5037677;28;20481;-86
2022/03/03 05:42:12;;;;;;;37.83;14.70;;;;;;;;;;5037939;28;20429;-88
2022/03/03 05:44:38;;;;;;;28.63;16.13;;;;;;;;;;5037270;28;20421;-84
2022/03/03 05:47:10;;;;;;;40.50;18.27;;;;;;;;;;5019146;28;20423;-86
2022/03/03 05:49:37;;;;;;;69.93;14.70;;;;;;;;;;5036780;28;20897;-85
2022/03/03 05:52:06;;;;;;;36.43;15.37;;;;;;;;;;5036278;28;20413;-84
2022/03/03 05:54:32;;;;;;;27.63;14.97;;;;;;;;;;5018708;28;20482;-86
2022/03/03 05:57:00;;;;;;;26.63;12.80;;;;;;;;;;5002575;28;20919;-86
2022/03/03 05:59:27;;;;;;;26.67;13.80;;;;;;;;;;5036450;28;20998;-85
2022/03/03 06:01:53;;;;;;;55.33;14.57;;;;;;;;;;5036167;28;20400;-86
2022/03/03 06:04:22;;;;;;;60.60;16.23;;;;;;;;;;5036320;28;20889;-85
2022/03/03 06:07:00;;;;;;;38.10;13.77;;;;;;;;;;5036043;28;20770;-83
2022/03/03 06:09:30;;;;;;;47.03;16.80;;;;;;;;;;5036685;28;20416;-86
2022/03/03 06:12:18;;;;;;;45.07;16.30;;;;;;;;;;5036975;28;20750;-87
2022/03/03 06:14:50;;;;;;;52.97;16.30;;;;;;;;;;5037262;28;20747;-85
2022/03/03 06:17:17;;;;;;;29.40;15.07;;;;;;;;;;5036774;28;20409;-83
2022/03/03 06:19:44;;;;;;;36.97;15.67;;;;;;;;;;5036282;28;20480;-87
2022/03/03 06:22:11;;;;;;;36.80;13.77;;;;;;;;;;5017838;28;20416;-82
2022/03/03 06:24:37;;;;;;;45.80;14.40;;;;;;;;;;5017021;28;20957;-82
2022/03/03 06:27:03;;;;;;;32.63;16.40;;;;;;;;;;5035883;28;20904;-87
2022/03/03 06:29:31;;;;;;;35.70;14.40;;;;;;;;;;5036599;28;20437;-84
2022/03/03 06:31:58;;;;;;;30.27;14.87;;;;;;;;;;5036048;28;20413;-85
2022/03/03 06:34:24;;;;;;;33.17;15.50;;;;;;;;;;5036586;28;20416;-83
2022/03/03 06:36:51;;;;;;;31.97;14.07;;;;;;;;;;5036822;28;20405;-88
2022/03/03 06:39:17;;;;;;;35.63;14.77;;;;;;;;;;5035633;28;20475;-83
2022/03/03 06:41:44;;;;;;;40.70;17.13;;;;;;;;;;5035219;28;20407;-82
2022/03/03 06:44:10;;;;;;;29.83;14.57;;;;;;;;;;5035332;28;20538;-82
2022/03/03 06:46:36;;;;;;;24.93;13.50;;;;;;;;;;5035248;28;20493;-82
2022/03/03 06:49:02;;;;;;;25.23;11.87;;;;;;;;;;5017477;28;20504;-84
2022/03/03 06:51:29;;;;;;;24.77;11.90;;;;;;;;;;5034984;28;20404;-84
2022/03/03 06:53:56;;;;;;;29.63;12.70;;;;;;;;;;5034857;28;20752;-83
2022/03/03 06:56:25;;;;;;;26.23;11.93;;;;;;;;;;5034885;28;20411;-85
2022/03/03 06:58:52;;;;;;;21.93;11.60;;;;;;;;;;5016910;28;20492;-82
2022/03/03 07:01:19;;;;;;;21.67;13.23;;;;;;;;;;5016935;28;20423;-83
2022/03/03 07:03:45;;;;;;;18.43;10.53;;;;;;;;;;5016870;28;20419;-82
2022/03/03 07:06:13;;;;;;;22.87;11.00;;;;;;;;;;5034291;28;20440;-82
2022/03/03 07:08:39;;;;;;;21.77;10.77;;;;;;;;;;5034597;28;20835;-82
2022/03/03 07:11:05;;;;;;;21.47;10.00;;;;;;;;;;5034756;28;20410;-86
2022/03/03 07:13:31;;;;;;;22.00;9.80;;;;;;;;;;5034638;28;20457;-81
2022/03/03 07:16:09;;;;;;;16.77;9.37;;;;;;;;;;5034659;28;20431;-82
2022/03/03 07:18:42;;;;;;;18.07;8.77;;;;;;;;;;5034492;28;20717;-81
2022/03/03 07:21:16;;;;;;;15.67;9.07;;;;;;;;;;5016480;28;20445;-82
2022/03/03 07:23:48;;;;;;;17.27;8.77;;;;;;;;;;5034596;28;20416;-88
2022/03/03 07:26:15;;;;;;;18.53;9.40;;;;;;;;;;5034509;28;20416;-83
2022/03/03 07:28:44;;;;;;;20.70;9.90;;;;;;;;;;5034396;28;20779;-82
2022/03/03 07:31:11;;;;;;;18.20;9.33;;;;;;;;;;5034319;28;20435;-82
2022/03/03 07:33:43;;;;;;;14.23;8.80;;;;;;;;;;5034366;28;20416;-82
2022/03/03 07:36:10;;;;;;;14.73;7.23;;;;;;;;;;5034032;28;20441;-87
2022/03/03 07:38:37;;;;;;;17.57;9.80;;;;;;;;;;5016267;28;20488;-82
2022/03/03 07:41:04;;;;;;;18.20;9.23;;;;;;;;;;5034109;28;20417;-82
2022/03/03 07:43:30;;;;;;;18.77;8.63;;;;;;;;;;5016522;28;20425;-85
2022/03/03 07:45:56;;;;;;;13.87;9.03;;;;;;;;;;5033457;28;20845;-83
2022/03/03 07:48:23;;;;;;;21.00;9.27;;;;;;;;;;5033513;28;20415;-82
2022/03/03 07:50:49;;;;;;;13.37;8.47;;;;;;;;;;5016551;28;20778;-84
2022/03/03 07:53:18;;;;;;;17.77;9.43;;;;;;;;;;5033666;28;20765;-83
2022/03/03 07:55:46;;;;;;;15.30;9.53;;;;;;;;;;5016170;28;20511;-86
2022/03/03 07:58:14;;;;;;;17.07;8.90;;;;;;;;;;5015798;28;20603;-86
2022/03/03 08:00:44;;;;;;;14.43;8.33;;;;;;;;;;5034002;28;20480;-86
2022/03/03 08:03:13;;;;;;;14.70;8.10;;;;;;;;;;5016171;28;20971;-82
2022/03/03 08:05:40;;;;;;;18.43;9.27;;;;;;;;;;5033820;28;20405;-84
2022/03/03 08:08:09;;;;;;;15.90;10.30;;;;;;;;;;5033347;28;20440;-84
2022/03/03 08:10:37;;;;;;;18.70;10.40;;;;;;;;;;5033718;28;20503;-87
2022/03/03 08:13:03;;;;;;;17.57;10.57;;;;;;;;;;5033514;28;20464;-82
2022/03/03 08:15:29;;;;;;;20.30;10.20;;;;;;;;;;5033625;28;20598;-82
2022/03/03 08:17:55;;;;;;;16.80;9.33;;;;;;;;;;5015775;28;20513;-83
2022/03/03 08:20:21;;;;;;;17.87;10.50;;;;;;;;;;5015760;28;20429;-84
2022/03/03 08:22:47;;;;;;;15.20;8.73;;;;;;;;;;5033945;28;20496;-81
2022/03/03 08:25:14;;;;;;;17.00;10.20;;;;;;;;;;5015708;28;20520;-83
2022/03/03 08:27:40;;;;;;;16.70;11.03;;;;;;;;;;5016198;28;20538;-82
2022/03/03 08:30:07;;;;;;;16.40;9.97;;;;;;;;;;5015940;28;20539;-82
2022/03/03 08:32:48;;;;;;;13.70;8.67;;;;;;;;;;5033475;28;20409;-81
2022/03/03 08:35:14;;;;;;;18.23;9.30;;;;;;;;;;5015932;28;20778;-82
2022/03/03 08:37:42;;;;;;;13.20;8.03;;;;;;;;;;5015118;28;20416;-83
2022/03/03 08:40:10;;;;;;;12.90;8.10;;;;;;;;;;5016055;28;20421;-85
2022/03/03 08:42:40;;;;;;;13.83;8.60;;;;;;;;;;5015515;28;20446;-81
2022/03/03 08:45:09;;;;;;;13.63;7.83;;;;;;;;;;5033140;28;20425;-81
2022/03/03 08:47:35;;;;;;;14.07;7.60;;;;;;;;;;5033035;28;20421;-82
2022/03/03 08:50:03;;;;;;;14.53;8.20;;;;;;;;;;5033082;28;20431;-81
2022/03/03 08:52:29;;;;;;;13.63;7.10;;;;;;;;;;5032569;28;20516;-81
2022/03/03 08:54:55;;;;;;;14.07;8.00;;;;;;;;;;5033440;28;20917;-85
2022/03/03 08:57:22;;;;;;;12.40;6.97;;;;;;;;;;5033146;28;20401;-89
2022/03/03 08:59:48;;;;;;;14.20;7.30;;;;;;;;;;5032966;28;20607;-81
2022/03/03 09:02:16;;;;;;;17.30;8.70;;;;;;;;;;5032822;28;20405;-84
2022/03/03 09:04:42;;;;;;;11.77;7.67;;;;;;;;;;5033045;28;20889;-85
2022/03/03 09:07:09;;;;;;;15.83;8.60;;;;;;;;;;5015038;28;20420;-82
2022/03/03 09:09:34;;;;;;;13.57;7.60;;;;;;;;;;5033491;28;20508;-87
2022/03/03 09:12:01;;;;;;;15.90;7.50;;;;;;;;;;5032976;28;20417;-81
2022/03/03 09:14:27;;;;;;;17.00;7.43;;;;;;;;;;5032879;28;20419;-81
2022/03/03 09:16:53;;;;;;;11.30;7.77;;;;;;;;;;5033270;28;20461;-84
2022/03/03 09:19:21;;;;;;;16.03;7.40;;;;;;;;;;5032894;28;20555;-87
2022/03/03 09:21:47;;;;;;;11.00;6.00;;;;;;;;;;5032896;28;20420;-86
2022/03/03 09:24:13;;;;;;;7.30;4.17;;;;;;;;;;5032743;28;20509;-84
2022/03/03 09:26:39;;;;;;;14.53;5.43;;;;;;;;;;5032775;28;20410;-84
2022/03/03 09:29:08;;;;;;;7.57;5.07;;;;;;;;;;5032741;28;20418;-83
2022/03/03 09:31:35;;;;;;;8.40;5.10;;;;;;;;;;5033188;28;20409;-82
2022/03/03 09:34:04;;;;;;;7.00;4.40;;;;;;;;;;5032753;28;20492;-82
2022/03/03 09:36:30;;;;;;;8.90;5.93;;;;;;;;;;5032588;28;20767;-87
2022/03/03 09:38:56;;;;;;;10.77;6.37;;;;;;;;;;5032898;28;20483;-81
2022/03/03 09:41:22;;;;;;;11.03;5.97;;;;;;;;;;5033255;28;20406;-86
2022/03/03 09:43:48;;;;;;;13.40;5.27;;;;;;;;;;5033300;28;20426;-84
2022/03/03 09:46:17;;;;;;;8.47;5.73;;;;;;;;;;5033056;28;20461;-81
2022/03/03 09:48:43;;;;;;;12.30;5.97;;;;;;;;;;5032662;28;20496;-81
2022/03/03 09:51:09;;;;;;;10.27;5.47;;;;;;;;;;5032396;28;20508;-82
2022/03/03 09:53:39;;;;;;;11.57;5.40;;;;;;;;;;5015292;28;20452;-89
2022/03/03 09:56:05;;;;;;;11.40;6.97;;;;;;;;;;5033209;28;20854;-81
2022/03/03 09:58:31;;;;;;;10.60;6.47;;;;;;;;;;5032391;28;20513;-83
2022/03/03 10:00:57;;;;;;;9.97;5.43;;;;;;;;;;5032751;28;20546;-87
2022/03/03 10:03:23;;;;;;;13.30;7.57;;;;;;;;;;5033043;28;20405;-81
2022/03/03 10:05:51;;;;;;;12.50;6.80;;;;;;;;;;5032213;28;20515;-87
2022/03/03 10:08:21;;;;;;;12.20;7.60;;;;;;;;;;5032639;28;20420;-83
2022/03/03 10:10:48;;;;;;;20.23;7.80;;;;;;;;;;5012558;28;20426;-91
2022/03/03 10:13:16;;;;;;;12.20;6.83;;;;;;;;;;5025980;28;20432;-85
2022/03/03 10:15:42;;;;;;;13.93;6.27;;;;;;;;;;5015542;28;20420;-85
2022/03/03 10:18:12;;;;;;;16.07;6.80;;;;;;;;;;5029313;28;20823;-85
2022/03/03 10:20:49;;;;;;;11.60;5.90;;;;;;;;;;5028312;28;20425;-81
2022/03/03 10:23:16;;;;;;;12.10;7.47;;;;;;;;;;5028028;28;20409;-79
2022/03/03 10:25:44;;;;;;;14.07;6.73;;;;;;;;;;5015646;28;20432;-78
2022/03/03 10:28:17;;;;;;;17.67;6.57;;;;;;;;;;5015581;28;20410;-79
2022/03/03 10:30:49;;;;;;;12.37;5.83;;;;;;;;;;5030094;28;20786;-79
2022/03/03 10:33:16;;;;;;;15.17;8.47;;;;;;;;;;5035438;28;20401;-78
2022/03/03 10:35:42;;;;;;;13.27;6.90;;;;;;;;;;5034933;28;20436;-79
2022/03/03 10:38:08;;;;;;;10.47;5.30;;;;;;;;;;5035144;28;20944;-78
2022/03/03 10:40:38;;;;;;;12.67;6.10;;;;;;;;;;5035407;28;20417;-78
2022/03/03 10:43:05;;;;;;;12.00;4.90;;;;;;;;;;5035163;28;20909;-79
2022/03/03 10:45:32;;;;;;;9.30;4.77;;;;;;;;;;5015402;28;20422;-78
2022/03/03 10:48:06;;;;;;;7.90;4.47;;;;;;;;;;5015173;28;20509;-79
2022/03/03 10:50:48;;;;;;;10.77;5.37;;;;;;;;;;5013609;28;20824;-80
2022/03/03 10:53:17;;;;;;;12.50;5.47;;;;;;;;;;5014058;28;20422;-79
2022/03/03 10:56:02;;;;;;;8.23;4.40;;;;;;;;;;5015311;28;20414;-79
2022/03/03 10:58:47;;;;;;;8.33;4.30;;;;;;;;;;5015137;28;20896;-82
2022/03/03 11:01:14;;;;;;;11.00;5.07;;;;;;;;;;5013896;28;20429;-81
2022/03/03 11:03:40;;;;;;;8.10;4.53;;;;;;;;;;5015089;28;20418;-82
2022/03/03 11:06:09;;;;;;;10.97;6.17;;;;;;;;;;5014518;28;20410;-82
2022/03/03 11:08:35;;;;;;;13.03;5.47;;;;;;;;;;5015257;28;20529;-79
2022/03/03 11:11:03;;;;;;;9.00;4.60;;;;;;;;;;5034655;28;20984;-79
2022/03/03 11:13:29;;;;;;;6.90;4.53;;;;;;;;;;5025474;28;20972;-81
2022/03/03 11:15:55;;;;;;;9.17;4.50;;;;;;;;;;5016673;28;20423;-80
2022/03/03 11:18:22;;;;;;;11.60;4.00;;;;;;;;;;5013654;28;20465;-80
2022/03/03 11:20:49;;;;;;;6.47;3.30;;;;;;;;;;5016406;28;20425;-81
2022/03/03 11:23:15;;;;;;;10.20;3.97;;;;;;;;;;5034717;28;20488;-79
2022/03/03 11:25:42;;;;;;;7.50;3.77;;;;;;;;;;5034659;28;20413;-81
2022/03/03 11:28:14;;;;;;;4.77;3.00;;;;;;;;;;5034722;28;20460;-81
2022/03/03 11:30:40;;;;;;;4.23;3.00;;;;;;;;;;5037408;28;20925;-80
2022/03/03 11:33:26;;;;;;;5.00;2.80;;;;;;;;;;5040732;28;20575;-80
2022/03/03 11:35:56;;;;;;;5.67;3.00;;;;;;;;;;5035153;28;20493;-81
2022/03/03 11:38:23;;;;;;;5.70;2.50;;;;;;;;;;5019745;28;20824;-80
2022/03/03 11:41:00;;;;;;;4.60;2.67;;;;;;;;;;5017688;28;20417;-83
2022/03/03 11:43:29;;;;;;;7.17;2.83;;;;;;;;;;5013478;28;20435;-82
2022/03/03 11:45:57;;;;;;;3.90;1.70;;;;;;;;;;5014890;28;20410;-83
2022/03/03 11:48:29;;;;;;;3.07;2.47;;;;;;;;;;5031669;28;20822;-80
2022/03/03 11:50:55;;;;;;;8.10;3.70;;;;;;;;;;5033844;28;20489;-82
2022/03/03 11:53:22;;;;;;;6.33;3.03;;;;;;;;;;5024976;28;20431;-81
2022/03/03 11:55:50;;;;;;;3.73;2.40;;;;;;;;;;5016171;28;20944;-85
2022/03/03 11:58:16;;;;;;;5.93;3.27;;;;;;;;;;5033570;28;21016;-84
2022/03/03 12:00:42;;;;;;;5.90;2.47;;;;;;;;;;5033410;28;20443;-84
2022/03/03 12:03:09;;;;;;;5.83;2.47;;;;;;;;;;5028986;28;20418;-82
2022/03/03 12:05:39;;;;;;;6.93;3.93;;;;;;;;;;5022256;28;20521;-81
2022/03/03 12:08:27;;;;;;;5.07;3.20;;;;;;;;;;5014016;28;20496;-81
2022/03/03 12:10:59;;;;;;;3.23;2.10;;;;;;;;;;5014012;28;20399;-83
2022/03/03 12:13:29;;;;;;;5.23;2.40;;;;;;;;;;5013791;28;20430;-82
2022/03/03 12:16:14;;;;;;;4.67;2.30;;;;;;;;;;5013738;28;20425;-79
2022/03/03 12:18:41;;;;;;;3.20;1.93;;;;;;;;;;5012395;28;20811;-82
2022/03/03 12:21:26;;;;;;;3.63;1.80;;;;;;;;;;5013424;28;20441;-82
2022/03/03 12:24:32;;;;;;;3.77;2.80;;;;;;;;;;5014677;28;20923;-83
2022/03/03 12:26:59;;;;;;;3.90;2.73;;;;;;;;;;4991839;28;20423;-83
2022/03/03 12:29:27;;;;;;;4.57;3.20;;;;;;;;;;5025025;28;20825;-83
2022/03/03 12:31:53;;;;;;;3.93;3.03;;;;;;;;;;5018171;28;20500;-82
2022/03/03 12:34:20;;;;;;;6.40;2.80;;;;;;;;;;5013084;28;20888;-80
2022/03/03 12:36:46;;;;;;;5.47;2.80;;;;;;;;;;5013134;28;20417;-83
2022/03/03 12:39:13;;;;;;;6.30;3.27;;;;;;;;;;5013116;28;20485;-80
2022/03/03 12:41:40;;;;;;;5.53;3.10;;;;;;;;;;5013389;28;20428;-80
2022/03/03 12:44:11;;;;;;;7.07;3.70;;;;;;;;;;5013372;28;20426;-79
2022/03/03 12:46:37;;;;;;;4.97;3.20;;;;;;;;;;5013245;28;20771;-80
2022/03/03 12:49:04;;;;;;;5.23;3.73;;;;;;;;;;5013244;28;20427;-80
2022/03/03 12:51:31;;;;;;;5.20;3.13;;;;;;;;;;5012992;28;20839;-81
2022/03/03 12:53:57;;;;;;;7.50;4.57;;;;;;;;;;5012883;28;20473;-82
2022/03/03 12:56:26;;;;;;;6.80;4.33;;;;;;;;;;5013145;28;20421;-80
2022/03/03 12:58:52;;;;;;;6.80;4.83;;;;;;;;;;5013124;28;20571;-81
2022/03/03 13:01:20;;;;;;;7.60;2.73;;;;;;;;;;4995363;28;20742;-83
2022/03/03 13:03:46;;;;;;;4.50;3.50;;;;;;;;;;5016815;28;20936;-83
2022/03/03 13:06:11;;;;;;;5.33;4.40;;;;;;;;;;5028012;28;20431;-81
2022/03/03 13:08:38;;;;;;;6.20;3.73;;;;;;;;;;5030887;28;20415;-82
2022/03/03 13:11:08;;;;;;;6.30;3.60;;;;;;;;;;5016729;28;20498;-84
2022/03/03 13:13:44;;;;;;;5.37;3.30;;;;;;;;;;5013429;28;20412;-85
2022/03/03 13:16:29;;;;;;;4.60;3.40;;;;;;;;;;5013202;28;20457;-83
2022/03/03 13:18:55;;;;;;;6.73;3.60;;;;;;;;;;5023538;28;20454;-82
2022/03/03 13:21:23;;;;;;;4.37;3.00;;;;;;;;;;5028070;28;20415;-83
2022/03/03 13:23:56;;;;;;;6.07;3.50;;;;;;;;;;5020902;28;20860;-83
2022/03/03 13:26:24;;;;;;;6.17;3.97;;;;;;;;;;5016010;28;20811;-82
2022/03/03 13:29:00;;;;;;;6.37;3.57;;;;;;;;;;5031380;28;20410;-81
2022/03/03 13:31:33;;;;;;;4.73;2.40;;;;;;;;;;5031862;28;20417;-82
2022/03/03 13:34:02;;;;;;;6.23;3.27;;;;;;;;;;5015281;28;20504;-84
2022/03/03 13:36:37;;;;;;;6.67;3.80;;;;;;;;;;5014961;28;20459;-85
2022/03/03 13:39:03;;;;;;;7.33;4.17;;;;;;;;;;5032532;28;20589;-83
2022/03/03 13:41:33;;;;;;;5.87;3.30;;;;;;;;;;5032412;28;20417;-80
2022/03/03 13:44:13;;;;;;;5.50;3.40;;;;;;;;;;5033277;28;20420;-81
2022/03/03 13:46:40;;;;;;;8.23;3.60;;;;;;;;;;5036022;28;21064;-82
2022/03/03 13:49:07;;;;;;;4.80;2.60;;;;;;;;;;5035998;28;20900;-80
2022/03/03 13:51:33;;;;;;;4.43;2.73;;;;;;;;;;5035592;28;20428;-83
2022/03/03 13:54:03;;;;;;;6.00;3.17;;;;;;;;;;5036234;28;20867;-79
2022/03/03 13:56:39;;;;;;;5.57;2.77;;;;;;;;;;5036566;28;20947;-82
2022/03/03 13:59:05;;;;;;;5.97;3.87;;;;;;;;;;4974973;28;20483;-79
2022/03/03 14:01:33;;;;;;;7.50;3.40;;;;;;;;;;4976946;28;20417;-82
2022/03/03 14:04:08;;;;;;;7.43;4.40;;;;;;;;;;4976829;28;20777;-80
2022/03/03 14:06:38;;;;;;;5.53;2.70;;;;;;;;;;4976527;28;20903;-82
2022/03/03 14:09:04;;;;;;;7.40;3.53;;;;;;;;;;4976821;28;20420;-79
2022/03/03 14:11:30;;;;;;;5.27;2.90;;;;;;;;;;4976715;28;20420;-80
2022/03/03 14:13:58;;;;;;;7.30;3.53;;;;;;;;;;4976678;28;20411;-82
2022/03/03 14:16:28;;;;;;;6.63;3.77;;;;;;;;;;4976641;28;20863;-80
2022/03/03 14:18:55;;;;;;;4.83;2.90;;;;;;;;;;4976624;28;20516;-81
2022/03/03 14:21:21;;;;;;;5.20;2.63;;;;;;;;;;4976191;28;20419;-82
2022/03/03 14:23:47;;;;;;;4.50;2.47;;;;;;;;;;4976577;28;20426;-81
2022/03/03 14:26:14;;;;;;;5.03;1.20;;;;;;;;;;4976538;28;20930;-81
2022/03/03 14:28:40;;;;;;;5.23;2.63;;;;;;;;;;4991382;28;20426;-80